createdAt,value
2023-02-08T00:00:35.660Z,65.5
2023-02-08T00:06:10.995Z,66
2023-02-08T00:11:46.132Z,66.4
2023-02-08T00:17:21.280Z,66.6
2023-02-08T00:23:01.348Z,66.5
2023-02-08T00:28:36.860Z,66
2023-02-08T00:34:17.662Z,65.8
2023-02-08T00:39:53.065Z,65.8
2023-02-08T00:45:28.188Z,66
2023-02-08T00:51:04.679Z,65.8
2023-02-08T00:56:39.659Z,65.8
2023-02-08T01:02:15.943Z,65.7
2023-02-08T01:07:51.966Z,66.1
2023-02-08T01:13:27.733Z,66
2023-02-08T01:19:03.792Z,66.4
2023-02-08T01:24:39.067Z,66.2
2023-02-08T01:30:13.888Z,66.2
2023-02-08T01:35:48.605Z,65.9
2023-02-08T01:41:23.664Z,66
2023-02-08T01:47:21.149Z,65.9
2023-02-08T01:52:55.049Z,65.5
2023-02-08T01:58:29.927Z,65.8
2023-02-08T02:04:06.087Z,66.3
2023-02-08T02:09:55.622Z,66.3
2023-02-08T02:15:43.628Z,66.1
2023-02-08T02:21:20.403Z,66.4
2023-02-08T02:26:57.683Z,66.2
2023-02-08T02:32:32.708Z,66.4
2023-02-08T02:38:07.633Z,66.7
2023-02-08T02:43:42.998Z,66.9
2023-02-08T02:49:40.063Z,66.4
2023-02-08T02:55:12.689Z,66.6
2023-02-08T03:00:49.773Z,66.1
2023-02-08T03:06:25.512Z,66.3
2023-02-08T03:12:00.824Z,66.6
2023-02-08T03:17:36.418Z,66.7
2023-02-08T03:23:12.892Z,66.4
2023-02-08T03:29:09.034Z,66.6
2023-02-08T03:34:44.031Z,66.7
2023-02-08T03:40:19.177Z,67.2
2023-02-08T03:45:54.726Z,66.9
2023-02-08T03:51:30.119Z,67.1
2023-02-08T03:57:05.398Z,66.5
2023-02-08T04:02:40.859Z,66.3
2023-02-08T04:08:36.744Z,66.6
2023-02-08T04:14:11.802Z,66.9
2023-02-08T04:19:47.986Z,67
2023-02-08T04:25:24.466Z,66.9
2023-02-08T04:31:00.174Z,66.5
2023-02-08T04:36:37.267Z,66.5
2023-02-08T04:42:12.412Z,66.1
2023-02-08T04:48:12.027Z,66.6
2023-02-08T04:53:45.305Z,66.8
2023-02-08T04:59:20.331Z,67.2
2023-02-08T05:04:55.464Z,67.4
2023-02-08T05:10:30.895Z,67
2023-02-08T05:16:06.276Z,65.8
2023-02-08T05:21:41.996Z,65.4
2023-02-08T05:27:16.815Z,65.3
2023-02-08T05:32:51.587Z,65.4
2023-02-08T05:38:27.385Z,65.4
2023-02-08T05:44:03.817Z,66.4
2023-02-08T05:50:01.448Z,66.4
2023-02-08T05:55:35.710Z,66.1
2023-02-08T06:01:10.577Z,65.8
2023-02-08T06:06:45.351Z,65.8
2023-02-08T06:12:23.272Z,65.6
2023-02-08T06:17:59.505Z,65.4
2023-02-08T06:23:34.959Z,64.9
2023-02-08T06:29:10.394Z,65.2
2023-02-08T06:34:45.622Z,64.7
2023-02-08T06:40:22.098Z,64.8
2023-02-08T06:45:57.806Z,65.5
2023-02-08T06:51:33.609Z,65.1
2023-02-08T06:57:08.746Z,65.8
2023-02-08T07:02:43.875Z,73.1
2023-02-08T07:08:29.365Z,75.1
2023-02-08T07:14:04.610Z,74.8
2023-02-08T07:19:48.467Z,76.7
2023-02-08T07:25:24.910Z,77.4
2023-02-08T07:31:08.301Z,77.5
2023-02-08T07:36:52.409Z,76.1
2023-02-08T07:42:28.135Z,77.3
2023-02-08T07:48:34.685Z,76.5
2023-02-08T07:54:08.238Z,76.3
2023-02-08T07:59:44.578Z,77.8
2023-02-08T08:05:30.085Z,76.2
2023-02-08T08:11:05.590Z,75.8
2023-02-08T08:16:43.605Z,77.1
2023-02-08T08:22:35.957Z,76.7
2023-02-08T08:28:17.434Z,75
2023-02-08T08:33:54.865Z,74.8
2023-02-08T08:39:33.413Z,74.7
2023-02-08T08:45:09.209Z,74.3
2023-02-08T08:50:45.891Z,76
2023-02-08T08:56:38.242Z,76.5
2023-02-08T09:02:13.392Z,75.2
2023-02-08T09:07:50.322Z,75
2023-02-08T09:13:28.657Z,74.7
2023-02-08T09:19:05.677Z,75.1
2023-02-08T09:24:43.338Z,74.1
2023-02-08T09:30:18.738Z,73.6
2023-02-08T09:35:54.830Z,72.6
2023-02-08T09:41:29.992Z,72.3
2023-02-08T09:47:05.243Z,73.9
2023-02-08T09:53:08.591Z,74
2023-02-08T09:58:43.870Z,73.2
2023-02-08T10:04:19.197Z,73
2023-02-08T10:10:16.285Z,73
2023-02-08T10:15:52.084Z,72.6
2023-02-08T10:21:27.118Z,71.4
2023-02-08T10:27:02.835Z,70.4
2023-02-08T10:32:46.326Z,71.2
2023-02-08T10:38:21.794Z,70.8
2023-02-08T10:44:19.911Z,70.9
2023-02-08T10:50:02.795Z,69.6
2023-02-08T10:55:44.515Z,69.5
2023-02-08T11:01:23.951Z,69.6
2023-02-08T11:06:59.988Z,68.1
2023-02-08T11:12:35.156Z,68.9
2023-02-08T11:18:10.716Z,68.3
2023-02-08T11:23:45.642Z,68.2
2023-02-08T11:29:21.644Z,68.3
2023-02-08T11:34:57.051Z,66.4
2023-02-08T11:40:32.526Z,66.2
2023-02-08T11:46:33.933Z,64.6
2023-02-08T11:52:13.766Z,64.9
2023-02-08T11:57:59.656Z,64.1
2023-02-08T12:03:35.558Z,64.2
2023-02-08T12:09:17.790Z,63.1
2023-02-08T12:14:53.538Z,64.4
2023-02-08T12:20:29.004Z,62.6
2023-02-08T12:26:04.716Z,63.7
2023-02-08T12:31:40.400Z,62.5
2023-02-08T12:37:17.857Z,64
2023-02-08T12:42:53.361Z,62.1
2023-02-08T12:48:50.118Z,61.3
2023-02-08T12:54:22.831Z,59.1
2023-02-08T12:59:58.240Z,59.7
2023-02-08T13:05:33.924Z,57.3
2023-02-08T13:11:21.068Z,58.4
2023-02-08T13:17:00.512Z,57.3
2023-02-08T13:22:36.611Z,54.9
2023-02-08T13:28:24.485Z,54.7
2023-02-08T13:34:11.262Z,54.7
2023-02-08T13:39:46.691Z,54.3
2023-02-08T13:45:28.614Z,55.2
2023-02-08T13:51:11.164Z,52.9
2023-02-08T13:58:28.794Z,50.9
2023-02-08T14:04:05.287Z,49.5
2023-02-08T14:09:40.804Z,46.1
2023-02-08T14:15:16.474Z,45
2023-02-08T14:20:54.590Z,43.2
2023-02-08T14:26:32.848Z,41.9
2023-02-08T14:32:08.506Z,37.6
2023-02-08T14:37:47.996Z,36.5
2023-02-08T14:43:38.675Z,34.1
2023-02-08T14:49:46.761Z,34.5
2023-02-08T14:55:20.151Z,32.2
2023-02-08T15:00:55.726Z,32.4
2023-02-08T15:06:31.993Z,32.2
2023-02-08T15:12:07.296Z,30.7
2023-02-08T15:17:43.945Z,31.9
2023-02-08T15:23:27.791Z,33.7
2023-02-08T15:29:09.627Z,37
2023-02-08T15:34:44.895Z,43.1
2023-02-08T15:40:23.012Z,47.3
2023-02-08T15:45:58.500Z,49
2023-02-08T15:51:35.547Z,50
2023-02-08T15:57:11.435Z,51.2
2023-02-08T16:02:46.660Z,50.8
2023-02-08T16:08:22.406Z,51.2
2023-02-08T16:13:57.653Z,52.3
2023-02-08T16:19:36.159Z,51.9
2023-02-08T16:25:12.907Z,53.2
2023-02-08T16:30:54.593Z,53.4
2023-02-08T16:36:30.980Z,54.5
2023-02-08T16:42:16.552Z,54.3
2023-02-08T16:48:19.521Z,54.6
2023-02-08T16:53:52.538Z,55.7
2023-02-08T16:59:27.820Z,55.1
2023-02-08T17:05:03.048Z,55.5
2023-02-08T17:10:39.476Z,56.3
2023-02-08T17:16:23.225Z,56.4
2023-02-08T17:21:59.087Z,56.8
2023-02-08T17:27:37.011Z,58.8
2023-02-08T17:34:14.543Z,58.6
2023-02-08T17:39:50.014Z,59.3
2023-02-08T17:45:33.416Z,59.1
2023-02-08T17:51:37.825Z,56.2
2023-02-08T17:57:20.698Z,54.7
2023-02-08T18:03:15.609Z,54.4
2023-02-08T18:09:01.384Z,54.2
2023-02-08T18:15:01.410Z,55.2
2023-02-08T18:20:36.895Z,54.7
2023-02-08T18:26:16.529Z,54.7
2023-02-08T18:31:52.288Z,54.4
2023-02-08T18:37:29.434Z,54.7
2023-02-08T18:43:12.590Z,54.8
2023-02-08T18:49:12.226Z,54.5
2023-02-08T18:54:46.422Z,54.3
2023-02-08T19:00:31.029Z,54.5
2023-02-08T19:06:17.208Z,55
2023-02-08T19:12:15.060Z,55
2023-02-08T19:17:51.035Z,55.2
2023-02-08T19:23:26.067Z,55.4
2023-02-08T19:29:17.093Z,55.5
2023-02-08T19:34:52.185Z,55.8
2023-02-08T19:40:36.341Z,55.9
2023-02-08T19:46:11.856Z,55.8
2023-02-08T19:51:47.584Z,56.2
2023-02-08T19:57:31.295Z,56.1
2023-02-08T20:03:22.382Z,56.2
2023-02-08T20:08:58.230Z,56.4
2023-02-08T20:14:34.356Z,56.4
2023-02-08T20:20:12.587Z,56.3
2023-02-08T20:25:48.196Z,56.4
2023-02-08T20:31:26.312Z,56.5
2023-02-08T20:37:14.977Z,56.5
2023-02-08T20:42:50.128Z,56.6
2023-02-08T20:48:51.858Z,56.7
2023-02-08T20:54:25.429Z,57.1
2023-02-08T21:00:11.608Z,57.3
2023-02-08T21:05:46.875Z,57.2
2023-02-08T21:11:22.585Z,57.2
2023-02-08T21:16:59.996Z,57.4
2023-02-08T21:22:36.450Z,57.6
2023-02-08T21:28:21.444Z,57.8
2023-02-08T21:33:58.243Z,58.2
2023-02-08T21:39:41.054Z,58.6
2023-02-08T21:45:22.700Z,58.5
2023-02-08T21:51:09.278Z,58.8
2023-02-08T21:56:48.043Z,58.9
2023-02-08T22:02:44.185Z,59.3
2023-02-08T22:08:30.538Z,59.1
2023-02-08T22:14:14.114Z,59.2
2023-02-08T22:19:49.419Z,59.4
2023-02-08T22:25:24.739Z,59.6
2023-02-08T22:31:00.341Z,59.7
2023-02-08T22:36:46.234Z,59.7
2023-02-08T22:42:21.624Z,59.7
2023-02-08T22:48:20.402Z,59.4
2023-02-08T22:53:54.094Z,59.8
2023-02-08T22:59:40.317Z,60.6
2023-02-08T23:05:16.775Z,60.7
2023-02-08T23:10:52.061Z,60.5
2023-02-08T23:16:27.331Z,60.4
2023-02-08T23:22:12.231Z,60.6
2023-02-08T23:28:06.518Z,60.3
2023-02-08T23:33:43.207Z,60.1
2023-02-08T23:39:22.328Z,60
2023-02-08T23:44:58.628Z,60.5
2023-02-08T23:50:41.918Z,60.7
2023-02-08T23:56:23.016Z,60.8
